sensor_id;sensor_type;location;lat;lon;timestamp;P1;durP1;ratioP1;P2;durP2;ratioP2
51862;SDS011;37900;52.996;6.278;2023-02-19T00:00:58;3.08;;;1.90;;
51862;SDS011;37900;52.996;6.278;2023-02-19T00:03:28;2.60;;;1.80;;
51862;SDS011;37900;52.996;6.278;2023-02-19T00:05:54;4.55;;;2.17;;
51862;SDS011;37900;52.996;6.278;2023-02-19T00:08:19;2.78;;;1.65;;
51862;SDS011;37900;52.996;6.278;2023-02-19T00:10:45;3.63;;;1.83;;
51862;SDS011;37900;52.996;6.278;2023-02-19T00:13:11;3.10;;;1.80;;
51862;SDS011;37900;52.996;6.278;2023-02-19T00:15:37;4.00;;;1.98;;
51862;SDS011;37900;52.996;6.278;2023-02-19T00:18:02;4.28;;;1.70;;
51862;SDS011;37900;52.996;6.278;2023-02-19T00:20:28;4.35;;;1.70;;
51862;SDS011;37900;52.996;6.278;2023-02-19T00:22:54;3.13;;;1.48;;
51862;SDS011;37900;52.996;6.278;2023-02-19T00:25:19;3.03;;;1.60;;
51862;SDS011;37900;52.996;6.278;2023-02-19T00:27:45;4.05;;;1.60;;
51862;SDS011;37900;52.996;6.278;2023-02-19T00:30:11;3.97;;;1.70;;
51862;SDS011;37900;52.996;6.278;2023-02-19T00:32:37;2.03;;;1.40;;
51862;SDS011;37900;52.996;6.278;2023-02-19T00:35:02;4.13;;;1.88;;
51862;SDS011;37900;52.996;6.278;2023-02-19T00:37:28;2.53;;;1.65;;
51862;SDS011;37900;52.996;6.278;2023-02-19T00:39:54;3.60;;;1.65;;
51862;SDS011;37900;52.996;6.278;2023-02-19T00:42:19;2.55;;;1.67;;
51862;SDS011;37900;52.996;6.278;2023-02-19T00:44:45;2.30;;;1.70;;
51862;SDS011;37900;52.996;6.278;2023-02-19T00:47:11;2.47;;;1.88;;
51862;SDS011;37900;52.996;6.278;2023-02-19T00:49:36;3.00;;;1.70;;
51862;SDS011;37900;52.996;6.278;2023-02-19T00:52:02;3.28;;;1.60;;
51862;SDS011;37900;52.996;6.278;2023-02-19T00:54:28;2.63;;;1.40;;
51862;SDS011;37900;52.996;6.278;2023-02-19T00:56:55;2.53;;;1.40;;
51862;SDS011;37900;52.996;6.278;2023-02-19T00:59:21;2.40;;;1.33;;
51862;SDS011;37900;52.996;6.278;2023-02-19T01:01:46;3.20;;;1.58;;
51862;SDS011;37900;52.996;6.278;2023-02-19T01:04:13;2.92;;;1.80;;
51862;SDS011;37900;52.996;6.278;2023-02-19T01:06:40;2.05;;;1.40;;
51862;SDS011;37900;52.996;6.278;2023-02-19T01:09:06;1.80;;;1.25;;
51862;SDS011;37900;52.996;6.278;2023-02-19T01:11:32;3.88;;;1.70;;
51862;SDS011;37900;52.996;6.278;2023-02-19T01:13:58;2.35;;;1.63;;
51862;SDS011;37900;52.996;6.278;2023-02-19T01:16:25;2.78;;;1.40;;
51862;SDS011;37900;52.996;6.278;2023-02-19T01:18:52;2.55;;;1.58;;
51862;SDS011;37900;52.996;6.278;2023-02-19T01:21:19;1.83;;;1.30;;
51862;SDS011;37900;52.996;6.278;2023-02-19T01:23:47;3.45;;;1.63;;
51862;SDS011;37900;52.996;6.278;2023-02-19T01:26:15;2.70;;;1.80;;
51862;SDS011;37900;52.996;6.278;2023-02-19T01:28:43;4.85;;;1.63;;
51862;SDS011;37900;52.996;6.278;2023-02-19T01:31:11;2.28;;;1.65;;
51862;SDS011;37900;52.996;6.278;2023-02-19T01:33:38;2.55;;;1.55;;
51862;SDS011;37900;52.996;6.278;2023-02-19T01:36:05;2.15;;;1.35;;
51862;SDS011;37900;52.996;6.278;2023-02-19T01:38:31;2.38;;;1.70;;
51862;SDS011;37900;52.996;6.278;2023-02-19T01:40:58;4.00;;;1.50;;
51862;SDS011;37900;52.996;6.278;2023-02-19T01:43:26;3.65;;;1.63;;
51862;SDS011;37900;52.996;6.278;2023-02-19T01:45:52;1.35;;;1.10;;
51862;SDS011;37900;52.996;6.278;2023-02-19T01:48:19;2.67;;;1.30;;
51862;SDS011;37900;52.996;6.278;2023-02-19T01:50:56;2.35;;;1.33;;
51862;SDS011;37900;52.996;6.278;2023-02-19T01:53:28;1.73;;;1.17;;
51862;SDS011;37900;52.996;6.278;2023-02-19T01:55:56;2.00;;;1.30;;
51862;SDS011;37900;52.996;6.278;2023-02-19T01:58:25;2.08;;;1.38;;
51862;SDS011;37900;52.996;6.278;2023-02-19T02:00:54;2.25;;;1.55;;
51862;SDS011;37900;52.996;6.278;2023-02-19T02:03:20;2.38;;;1.33;;
51862;SDS011;37900;52.996;6.278;2023-02-19T02:06:00;2.88;;;1.60;;
51862;SDS011;37900;52.996;6.278;2023-02-19T02:08:30;1.85;;;1.42;;
51862;SDS011;37900;52.996;6.278;2023-02-19T02:11:15;3.08;;;1.50;;
51862;SDS011;37900;52.996;6.278;2023-02-19T02:13:41;2.15;;;1.25;;
51862;SDS011;37900;52.996;6.278;2023-02-19T02:19:01;2.22;;;1.63;;
51862;SDS011;37900;52.996;6.278;2023-02-19T02:31:56;2.15;;;1.45;;
51862;SDS011;37900;52.996;6.278;2023-02-19T02:34:33;2.47;;;1.35;;
51862;SDS011;37900;52.996;6.278;2023-02-19T02:37:08;2.28;;;1.33;;
51862;SDS011;37900;52.996;6.278;2023-02-19T02:39:36;2.35;;;1.50;;
51862;SDS011;37900;52.996;6.278;2023-02-19T02:42:03;1.98;;;1.15;;
51862;SDS011;37900;52.996;6.278;2023-02-19T02:44:47;2.13;;;1.20;;
51862;SDS011;37900;52.996;6.278;2023-02-19T02:47:32;3.83;;;1.45;;
51862;SDS011;37900;52.996;6.278;2023-02-19T02:50:05;2.92;;;1.42;;
51862;SDS011;37900;52.996;6.278;2023-02-19T02:52:37;3.92;;;1.35;;
51862;SDS011;37900;52.996;6.278;2023-02-19T02:55:24;2.10;;;1.42;;
51862;SDS011;37900;52.996;6.278;2023-02-19T02:57:51;1.73;;;1.08;;
51862;SDS011;37900;52.996;6.278;2023-02-19T03:00:17;1.90;;;1.30;;
51862;SDS011;37900;52.996;6.278;2023-02-19T03:02:42;1.98;;;1.05;;
51862;SDS011;37900;52.996;6.278;2023-02-19T03:05:10;2.30;;;1.50;;
51862;SDS011;37900;52.996;6.278;2023-02-19T03:08:04;1.98;;;1.40;;
51862;SDS011;37900;52.996;6.278;2023-02-19T03:10:35;1.77;;;1.05;;
51862;SDS011;37900;52.996;6.278;2023-02-19T03:13:02;2.20;;;1.23;;
51862;SDS011;37900;52.996;6.278;2023-02-19T03:16:01;2.58;;;1.40;;
51862;SDS011;37900;52.996;6.278;2023-02-19T03:18:52;1.60;;;1.02;;
51862;SDS011;37900;52.996;6.278;2023-02-19T03:21:40;2.53;;;1.50;;
51862;SDS011;37900;52.996;6.278;2023-02-19T03:24:08;1.95;;;1.08;;
51862;SDS011;37900;52.996;6.278;2023-02-19T03:26:54;2.78;;;1.42;;
51862;SDS011;37900;52.996;6.278;2023-02-19T03:29:23;1.45;;;0.93;;
51862;SDS011;37900;52.996;6.278;2023-02-19T03:31:59;2.90;;;1.48;;
51862;SDS011;37900;52.996;6.278;2023-02-19T03:34:30;1.50;;;1.20;;
51862;SDS011;37900;52.996;6.278;2023-02-19T03:39:48;2.13;;;1.52;;
51862;SDS011;37900;52.996;6.278;2023-02-19T03:42:27;1.63;;;1.15;;
51862;SDS011;37900;52.996;6.278;2023-02-19T03:51:07;2.30;;;1.35;;
51862;SDS011;37900;52.996;6.278;2023-02-19T03:58:56;1.00;;;0.90;;
51862;SDS011;37900;52.996;6.278;2023-02-19T04:06:51;2.13;;;1.20;;
51862;SDS011;37900;52.996;6.278;2023-02-19T04:09:19;2.05;;;1.23;;
51862;SDS011;37900;52.996;6.278;2023-02-19T04:14:14;1.92;;;1.20;;
51862;SDS011;37900;52.996;6.278;2023-02-19T04:16:50;1.98;;;1.20;;
51862;SDS011;37900;52.996;6.278;2023-02-19T04:19:20;2.00;;;1.15;;
51862;SDS011;37900;52.996;6.278;2023-02-19T04:21:48;2.70;;;1.15;;
51862;SDS011;37900;52.996;6.278;2023-02-19T04:24:22;2.72;;;1.30;;
51862;SDS011;37900;52.996;6.278;2023-02-19T04:26:55;1.73;;;1.08;;
51862;SDS011;37900;52.996;6.278;2023-02-19T04:29:21;1.48;;;1.35;;
51862;SDS011;37900;52.996;6.278;2023-02-19T04:31:46;2.25;;;1.17;;
51862;SDS011;37900;52.996;6.278;2023-02-19T04:34:12;2.45;;;1.30;;
51862;SDS011;37900;52.996;6.278;2023-02-19T04:36:38;1.73;;;1.40;;
51862;SDS011;37900;52.996;6.278;2023-02-19T04:39:03;1.65;;;1.25;;
51862;SDS011;37900;52.996;6.278;2023-02-19T04:41:29;2.35;;;0.80;;
51862;SDS011;37900;52.996;6.278;2023-02-19T04:43:55;2.47;;;1.30;;
51862;SDS011;37900;52.996;6.278;2023-02-19T04:46:20;1.60;;;1.10;;
51862;SDS011;37900;52.996;6.278;2023-02-19T04:48:46;1.58;;;0.80;;
51862;SDS011;37900;52.996;6.278;2023-02-19T04:51:12;2.65;;;1.08;;
51862;SDS011;37900;52.996;6.278;2023-02-19T04:53:38;1.40;;;1.10;;
51862;SDS011;37900;52.996;6.278;2023-02-19T04:56:07;1.52;;;0.90;;
51862;SDS011;37900;52.996;6.278;2023-02-19T04:58:38;1.75;;;1.10;;
51862;SDS011;37900;52.996;6.278;2023-02-19T05:01:04;1.42;;;1.10;;
51862;SDS011;37900;52.996;6.278;2023-02-19T05:03:30;1.35;;;1.00;;
51862;SDS011;37900;52.996;6.278;2023-02-19T05:05:56;1.52;;;0.95;;
51862;SDS011;37900;52.996;6.278;2023-02-19T05:08:22;1.27;;;0.90;;
51862;SDS011;37900;52.996;6.278;2023-02-19T05:10:48;1.48;;;1.00;;
51862;SDS011;37900;52.996;6.278;2023-02-19T05:13:13;1.23;;;0.88;;
51862;SDS011;37900;52.996;6.278;2023-02-19T05:15:39;2.25;;;0.90;;
51862;SDS011;37900;52.996;6.278;2023-02-19T05:18:05;1.58;;;1.00;;
51862;SDS011;37900;52.996;6.278;2023-02-19T05:20:30;0.82;;;0.80;;
51862;SDS011;37900;52.996;6.278;2023-02-19T05:22:56;0.88;;;0.80;;
51862;SDS011;37900;52.996;6.278;2023-02-19T05:25:22;2.63;;;1.17;;
51862;SDS011;37900;52.996;6.278;2023-02-19T05:27:47;2.10;;;1.08;;
51862;SDS011;37900;52.996;6.278;2023-02-19T05:30:13;1.38;;;0.90;;
51862;SDS011;37900;52.996;6.278;2023-02-19T05:32:39;1.48;;;1.02;;
51862;SDS011;37900;52.996;6.278;2023-02-19T05:35:04;0.90;;;0.68;;
51862;SDS011;37900;52.996;6.278;2023-02-19T05:37:30;1.27;;;0.80;;
51862;SDS011;37900;52.996;6.278;2023-02-19T05:39:56;1.23;;;1.00;;
51862;SDS011;37900;52.996;6.278;2023-02-19T05:42:21;1.27;;;0.90;;
51862;SDS011;37900;52.996;6.278;2023-02-19T05:44:47;1.15;;;0.90;;
51862;SDS011;37900;52.996;6.278;2023-02-19T05:47:13;2.25;;;1.00;;
51862;SDS011;37900;52.996;6.278;2023-02-19T05:49:38;0.82;;;0.73;;
51862;SDS011;37900;52.996;6.278;2023-02-19T05:52:04;1.08;;;0.60;;
51862;SDS011;37900;52.996;6.278;2023-02-19T05:54:30;1.55;;;0.93;;
51862;SDS011;37900;52.996;6.278;2023-02-19T05:56:56;1.10;;;0.80;;
51862;SDS011;37900;52.996;6.278;2023-02-19T05:59:23;1.73;;;1.00;;
51862;SDS011;37900;52.996;6.278;2023-02-19T06:01:51;1.88;;;0.95;;
51862;SDS011;37900;52.996;6.278;2023-02-19T06:04:17;1.40;;;1.00;;
51862;SDS011;37900;52.996;6.278;2023-02-19T06:06:44;1.33;;;1.13;;
51862;SDS011;37900;52.996;6.278;2023-02-19T06:09:10;2.03;;;1.08;;
51862;SDS011;37900;52.996;6.278;2023-02-19T06:11:36;1.58;;;0.80;;
51862;SDS011;37900;52.996;6.278;2023-02-19T06:14:03;1.30;;;1.02;;
51862;SDS011;37900;52.996;6.278;2023-02-19T06:16:29;1.73;;;0.90;;
51862;SDS011;37900;52.996;6.278;2023-02-19T06:18:57;1.25;;;0.75;;
51862;SDS011;37900;52.996;6.278;2023-02-19T06:21:23;1.10;;;0.88;;
51862;SDS011;37900;52.996;6.278;2023-02-19T06:23:49;0.85;;;0.80;;
51862;SDS011;37900;52.996;6.278;2023-02-19T06:26:19;1.35;;;0.95;;
51862;SDS011;37900;52.996;6.278;2023-02-19T06:28:47;1.58;;;1.00;;
51862;SDS011;37900;52.996;6.278;2023-02-19T06:31:15;1.35;;;0.73;;
51862;SDS011;37900;52.996;6.278;2023-02-19T06:33:41;0.80;;;0.70;;
51862;SDS011;37900;52.996;6.278;2023-02-19T06:36:11;0.82;;;0.60;;
51862;SDS011;37900;52.996;6.278;2023-02-19T06:38:39;3.75;;;1.08;;
51862;SDS011;37900;52.996;6.278;2023-02-19T06:41:05;1.10;;;0.52;;
51862;SDS011;37900;52.996;6.278;2023-02-19T06:43:32;1.63;;;0.93;;
51862;SDS011;37900;52.996;6.278;2023-02-19T06:45:59;1.27;;;0.90;;
51862;SDS011;37900;52.996;6.278;2023-02-19T06:48:27;1.02;;;0.80;;
51862;SDS011;37900;52.996;6.278;2023-02-19T06:53:19;1.00;;;0.65;;
51862;SDS011;37900;52.996;6.278;2023-02-19T06:55:59;1.25;;;0.82;;
51862;SDS011;37900;52.996;6.278;2023-02-19T06:58:27;0.88;;;0.52;;
51862;SDS011;37900;52.996;6.278;2023-02-19T07:00:53;1.45;;;0.88;;
51862;SDS011;37900;52.996;6.278;2023-02-19T07:03:18;0.65;;;0.63;;
51862;SDS011;37900;52.996;6.278;2023-02-19T07:05:45;0.95;;;0.57;;
51862;SDS011;37900;52.996;6.278;2023-02-19T07:08:10;1.75;;;0.82;;
51862;SDS011;37900;52.996;6.278;2023-02-19T07:10:36;1.75;;;0.80;;
51862;SDS011;37900;52.996;6.278;2023-02-19T07:13:02;1.90;;;1.10;;
51862;SDS011;37900;52.996;6.278;2023-02-19T07:15:27;1.25;;;0.73;;
51862;SDS011;37900;52.996;6.278;2023-02-19T07:17:53;1.75;;;0.80;;
51862;SDS011;37900;52.996;6.278;2023-02-19T07:20:19;1.02;;;0.70;;
51862;SDS011;37900;52.996;6.278;2023-02-19T07:22:44;1.33;;;0.93;;
51862;SDS011;37900;52.996;6.278;2023-02-19T07:25:10;0.70;;;0.70;;
51862;SDS011;37900;52.996;6.278;2023-02-19T07:27:35;0.95;;;0.65;;
51862;SDS011;37900;52.996;6.278;2023-02-19T07:30:01;1.33;;;0.95;;
51862;SDS011;37900;52.996;6.278;2023-02-19T07:32:28;0.90;;;0.70;;
51862;SDS011;37900;52.996;6.278;2023-02-19T07:34:54;0.73;;;0.50;;
51862;SDS011;37900;52.996;6.278;2023-02-19T07:37:19;1.15;;;0.73;;
51862;SDS011;37900;52.996;6.278;2023-02-19T07:39:45;0.55;;;0.55;;
51862;SDS011;37900;52.996;6.278;2023-02-19T07:42:11;1.38;;;0.80;;
51862;SDS011;37900;52.996;6.278;2023-02-19T07:44:37;1.27;;;0.80;;
51862;SDS011;37900;52.996;6.278;2023-02-19T07:47:02;0.60;;;0.60;;
51862;SDS011;37900;52.996;6.278;2023-02-19T07:49:28;1.10;;;0.60;;
51862;SDS011;37900;52.996;6.278;2023-02-19T07:51:54;1.17;;;0.90;;
51862;SDS011;37900;52.996;6.278;2023-02-19T07:54:20;1.67;;;0.85;;
51862;SDS011;37900;52.996;6.278;2023-02-19T07:56:45;1.15;;;0.77;;
51862;SDS011;37900;52.996;6.278;2023-02-19T07:59:17;0.90;;;0.50;;
51862;SDS011;37900;52.996;6.278;2023-02-19T08:01:45;0.70;;;0.65;;
51862;SDS011;37900;52.996;6.278;2023-02-19T08:04:29;1.08;;;0.60;;
51862;SDS011;37900;52.996;6.278;2023-02-19T08:06:55;0.60;;;0.40;;
51862;SDS011;37900;52.996;6.278;2023-02-19T08:09:21;0.63;;;0.50;;
51862;SDS011;37900;52.996;6.278;2023-02-19T08:11:46;0.55;;;0.52;;
51862;SDS011;37900;52.996;6.278;2023-02-19T08:14:30;1.63;;;0.68;;
51862;SDS011;37900;52.996;6.278;2023-02-19T08:16:56;0.45;;;0.43;;
51862;SDS011;37900;52.996;6.278;2023-02-19T08:19:22;1.08;;;0.80;;
51862;SDS011;37900;52.996;6.278;2023-02-19T08:21:48;1.17;;;0.70;;
51862;SDS011;37900;52.996;6.278;2023-02-19T08:24:14;1.40;;;0.53;;
51862;SDS011;37900;52.996;6.278;2023-02-19T08:26:40;0.90;;;0.60;;
51862;SDS011;37900;52.996;6.278;2023-02-19T08:29:06;0.73;;;0.63;;
51862;SDS011;37900;52.996;6.278;2023-02-19T08:31:32;0.85;;;0.60;;
51862;SDS011;37900;52.996;6.278;2023-02-19T08:33:58;0.60;;;0.60;;
51862;SDS011;37900;52.996;6.278;2023-02-19T08:36:24;0.55;;;0.40;;
51862;SDS011;37900;52.996;6.278;2023-02-19T08:38:50;0.63;;;0.60;;
51862;SDS011;37900;52.996;6.278;2023-02-19T08:41:16;0.95;;;0.70;;
51862;SDS011;37900;52.996;6.278;2023-02-19T08:43:42;0.63;;;0.63;;
51862;SDS011;37900;52.996;6.278;2023-02-19T08:46:08;0.88;;;0.77;;
51862;SDS011;37900;52.996;6.278;2023-02-19T08:48:35;0.68;;;0.55;;
51862;SDS011;37900;52.996;6.278;2023-02-19T08:51:02;0.75;;;0.47;;
51862;SDS011;37900;52.996;6.278;2023-02-19T08:53:31;0.70;;;0.57;;
51862;SDS011;37900;52.996;6.278;2023-02-19T08:55:57;1.25;;;1.15;;
51862;SDS011;37900;52.996;6.278;2023-02-19T08:58:22;0.75;;;0.55;;
51862;SDS011;37900;52.996;6.278;2023-02-19T09:03:16;0.95;;;0.50;;
51862;SDS011;37900;52.996;6.278;2023-02-19T09:05:42;2.55;;;0.85;;
51862;SDS011;37900;52.996;6.278;2023-02-19T09:08:08;2.53;;;0.80;;
51862;SDS011;37900;52.996;6.278;2023-02-19T09:10:34;2.38;;;1.02;;
51862;SDS011;37900;52.996;6.278;2023-02-19T09:13:00;1.77;;;1.02;;
51862;SDS011;37900;52.996;6.278;2023-02-19T09:15:26;1.02;;;0.70;;
51862;SDS011;37900;52.996;6.278;2023-02-19T09:17:53;1.30;;;0.80;;
51862;SDS011;37900;52.996;6.278;2023-02-19T09:20:19;1.30;;;0.75;;
51862;SDS011;37900;52.996;6.278;2023-02-19T09:22:45;1.20;;;1.00;;
51862;SDS011;37900;52.996;6.278;2023-02-19T09:25:11;2.33;;;0.90;;
51862;SDS011;37900;52.996;6.278;2023-02-19T09:27:36;1.23;;;0.88;;
51862;SDS011;37900;52.996;6.278;2023-02-19T09:30:02;2.80;;;1.23;;
51862;SDS011;37900;52.996;6.278;2023-02-19T09:32:29;1.23;;;0.65;;
51862;SDS011;37900;52.996;6.278;2023-02-19T09:34:55;2.00;;;0.93;;
51862;SDS011;37900;52.996;6.278;2023-02-19T09:37:25;0.82;;;0.70;;
51862;SDS011;37900;52.996;6.278;2023-02-19T09:39:52;1.50;;;0.90;;
51862;SDS011;37900;52.996;6.278;2023-02-19T09:42:26;1.85;;;1.10;;
51862;SDS011;37900;52.996;6.278;2023-02-19T09:44:56;1.10;;;1.00;;
51862;SDS011;37900;52.996;6.278;2023-02-19T09:47:25;2.58;;;0.90;;
51862;SDS011;37900;52.996;6.278;2023-02-19T09:49:55;1.45;;;0.77;;
51862;SDS011;37900;52.996;6.278;2023-02-19T09:52:44;1.27;;;0.80;;
51862;SDS011;37900;52.996;6.278;2023-02-19T09:55:33;1.65;;;0.75;;
51862;SDS011;37900;52.996;6.278;2023-02-19T09:58:01;0.82;;;0.70;;
51862;SDS011;37900;52.996;6.278;2023-02-19T10:00:40;1.38;;;1.08;;
51862;SDS011;37900;52.996;6.278;2023-02-19T10:03:12;1.40;;;0.60;;
51862;SDS011;37900;52.996;6.278;2023-02-19T10:05:45;0.55;;;0.55;;
51862;SDS011;37900;52.996;6.278;2023-02-19T10:08:13;1.70;;;0.50;;
51862;SDS011;37900;52.996;6.278;2023-02-19T10:10:43;1.85;;;0.82;;
51862;SDS011;37900;52.996;6.278;2023-02-19T10:13:20;0.98;;;0.80;;
51862;SDS011;37900;52.996;6.278;2023-02-19T10:15:54;1.92;;;0.93;;
51862;SDS011;37900;52.996;6.278;2023-02-19T10:18:23;0.52;;;0.52;;
51862;SDS011;37900;52.996;6.278;2023-02-19T10:20:54;1.02;;;0.80;;
51862;SDS011;37900;52.996;6.278;2023-02-19T10:23:21;1.05;;;0.70;;
51862;SDS011;37900;52.996;6.278;2023-02-19T10:25:49;2.15;;;1.40;;
51862;SDS011;37900;52.996;6.278;2023-02-19T10:28:19;1.30;;;0.70;;
51862;SDS011;37900;52.996;6.278;2023-02-19T10:30:52;1.52;;;0.77;;
51862;SDS011;37900;52.996;6.278;2023-02-19T10:33:20;0.85;;;0.50;;
51862;SDS011;37900;52.996;6.278;2023-02-19T10:35:59;1.55;;;0.93;;
51862;SDS011;37900;52.996;6.278;2023-02-19T10:38:29;1.15;;;0.80;;
51862;SDS011;37900;52.996;6.278;2023-02-19T10:41:03;1.20;;;0.60;;
51862;SDS011;37900;52.996;6.278;2023-02-19T10:43:34;1.00;;;0.70;;
51862;SDS011;37900;52.996;6.278;2023-02-19T10:46:25;0.98;;;0.70;;
51862;SDS011;37900;52.996;6.278;2023-02-19T10:48:59;0.70;;;0.50;;
51862;SDS011;37900;52.996;6.278;2023-02-19T10:51:32;2.80;;;0.90;;
51862;SDS011;37900;52.996;6.278;2023-02-19T10:59:47;1.17;;;0.93;;
51862;SDS011;37900;52.996;6.278;2023-02-19T11:02:16;1.15;;;0.68;;
51862;SDS011;37900;52.996;6.278;2023-02-19T11:07:30;1.50;;;0.93;;
51862;SDS011;37900;52.996;6.278;2023-02-19T11:09:57;1.58;;;0.68;;
51862;SDS011;37900;52.996;6.278;2023-02-19T11:12:27;3.40;;;0.68;;
51862;SDS011;37900;52.996;6.278;2023-02-19T11:14:55;1.13;;;0.63;;
51862;SDS011;37900;52.996;6.278;2023-02-19T11:17:22;2.70;;;0.93;;
51862;SDS011;37900;52.996;6.278;2023-02-19T11:19:53;0.75;;;0.47;;
51862;SDS011;37900;52.996;6.278;2023-02-19T11:22:34;1.40;;;0.77;;
51862;SDS011;37900;52.996;6.278;2023-02-19T11:33:12;1.25;;;0.60;;
51862;SDS011;37900;52.996;6.278;2023-02-19T11:35:48;0.75;;;0.57;;
51862;SDS011;37900;52.996;6.278;2023-02-19T11:38:17;1.33;;;0.82;;
51862;SDS011;37900;52.996;6.278;2023-02-19T11:54:53;1.05;;;0.52;;
51862;SDS011;37900;52.996;6.278;2023-02-19T11:58:15;0.63;;;0.40;;
51862;SDS011;37900;52.996;6.278;2023-02-19T12:00:44;2.38;;;0.80;;
51862;SDS011;37900;52.996;6.278;2023-02-19T12:08:49;1.70;;;0.60;;
51862;SDS011;37900;52.996;6.278;2023-02-19T12:11:23;0.63;;;0.57;;
51862;SDS011;37900;52.996;6.278;2023-02-19T12:16:42;0.52;;;0.40;;
51862;SDS011;37900;52.996;6.278;2023-02-19T12:19:17;1.33;;;0.60;;
51862;SDS011;37900;52.996;6.278;2023-02-19T12:38:31;1.42;;;0.80;;
51862;SDS011;37900;52.996;6.278;2023-02-19T12:41:11;0.70;;;0.70;;
51862;SDS011;37900;52.996;6.278;2023-02-19T12:43:44;1.02;;;0.68;;
51862;SDS011;37900;52.996;6.278;2023-02-19T12:49:03;0.88;;;0.57;;
51862;SDS011;37900;52.996;6.278;2023-02-19T12:54:12;0.47;;;0.40;;
51862;SDS011;37900;52.996;6.278;2023-02-19T12:56:51;1.00;;;0.50;;
51862;SDS011;37900;52.996;6.278;2023-02-19T13:05:17;0.88;;;0.65;;
51862;SDS011;37900;52.996;6.278;2023-02-19T13:10:37;0.60;;;0.50;;
51862;SDS011;37900;52.996;6.278;2023-02-19T13:13:27;1.60;;;0.73;;
51862;SDS011;37900;52.996;6.278;2023-02-19T13:16:07;1.00;;;0.60;;
51862;SDS011;37900;52.996;6.278;2023-02-19T13:18:45;1.52;;;0.70;;
51862;SDS011;37900;52.996;6.278;2023-02-19T13:21:19;0.82;;;0.55;;
51862;SDS011;37900;52.996;6.278;2023-02-19T13:24:08;1.50;;;0.60;;
51862;SDS011;37900;52.996;6.278;2023-02-19T13:37:46;2.60;;;1.08;;
51862;SDS011;37900;52.996;6.278;2023-02-19T13:40:18;4.18;;;1.23;;
51862;SDS011;37900;52.996;6.278;2023-02-19T13:43:07;2.13;;;1.20;;
51862;SDS011;37900;52.996;6.278;2023-02-19T13:45:52;1.40;;;0.77;;
51862;SDS011;37900;52.996;6.278;2023-02-19T13:51:45;1.13;;;0.93;;
51862;SDS011;37900;52.996;6.278;2023-02-19T14:04:21;1.55;;;1.20;;
51862;SDS011;37900;52.996;6.278;2023-02-19T14:14:54;1.23;;;0.93;;
51862;SDS011;37900;52.996;6.278;2023-02-19T14:28:00;3.22;;;1.20;;
51862;SDS011;37900;52.996;6.278;2023-02-19T14:33:35;2.30;;;1.08;;
51862;SDS011;37900;52.996;6.278;2023-02-19T14:39:01;1.95;;;1.25;;
51862;SDS011;37900;52.996;6.278;2023-02-19T14:41:31;2.40;;;0.93;;
51862;SDS011;37900;52.996;6.278;2023-02-19T14:44:01;2.13;;;0.90;;
51862;SDS011;37900;52.996;6.278;2023-02-19T14:48:54;1.80;;;0.90;;
51862;SDS011;37900;52.996;6.278;2023-02-19T14:51:28;2.15;;;1.25;;
51862;SDS011;37900;52.996;6.278;2023-02-19T14:53:57;2.35;;;1.20;;
51862;SDS011;37900;52.996;6.278;2023-02-19T14:56:30;1.27;;;0.85;;
51862;SDS011;37900;52.996;6.278;2023-02-19T14:59:06;1.83;;;1.00;;
51862;SDS011;37900;52.996;6.278;2023-02-19T15:01:38;2.78;;;1.20;;
51862;SDS011;37900;52.996;6.278;2023-02-19T15:04:04;1.77;;;0.97;;
51862;SDS011;37900;52.996;6.278;2023-02-19T15:06:31;2.08;;;1.13;;
51862;SDS011;37900;52.996;6.278;2023-02-19T15:09:03;1.38;;;1.10;;
51862;SDS011;37900;52.996;6.278;2023-02-19T15:11:31;2.10;;;1.05;;
51862;SDS011;37900;52.996;6.278;2023-02-19T15:16:29;2.20;;;1.10;;
51862;SDS011;37900;52.996;6.278;2023-02-19T15:18:56;1.90;;;0.90;;
51862;SDS011;37900;52.996;6.278;2023-02-19T15:21:24;2.15;;;1.27;;
51862;SDS011;37900;52.996;6.278;2023-02-19T15:23:56;2.38;;;0.80;;
51862;SDS011;37900;52.996;6.278;2023-02-19T15:26:32;1.25;;;0.90;;
51862;SDS011;37900;52.996;6.278;2023-02-19T15:29:01;1.25;;;0.75;;
51862;SDS011;37900;52.996;6.278;2023-02-19T15:31:29;1.42;;;0.98;;
51862;SDS011;37900;52.996;6.278;2023-02-19T15:33:55;2.60;;;0.90;;
51862;SDS011;37900;52.996;6.278;2023-02-19T15:36:25;2.90;;;1.20;;
51862;SDS011;37900;52.996;6.278;2023-02-19T15:38:54;1.95;;;1.10;;
51862;SDS011;37900;52.996;6.278;2023-02-19T15:41:22;1.00;;;0.70;;
51862;SDS011;37900;52.996;6.278;2023-02-19T15:43:55;1.13;;;0.95;;
51862;SDS011;37900;52.996;6.278;2023-02-19T15:46:26;1.20;;;0.80;;
51862;SDS011;37900;52.996;6.278;2023-02-19T15:49:02;1.58;;;0.95;;
51862;SDS011;37900;52.996;6.278;2023-02-19T15:51:35;2.75;;;0.90;;
51862;SDS011;37900;52.996;6.278;2023-02-19T15:57:12;1.55;;;0.98;;
51862;SDS011;37900;52.996;6.278;2023-02-19T15:59:46;1.65;;;1.08;;
51862;SDS011;37900;52.996;6.278;2023-02-19T16:02:19;2.00;;;1.10;;
51862;SDS011;37900;52.996;6.278;2023-02-19T16:04:45;1.35;;;0.65;;
51862;SDS011;37900;52.996;6.278;2023-02-19T16:07:25;1.23;;;0.57;;
51862;SDS011;37900;52.996;6.278;2023-02-19T16:12:54;0.82;;;0.77;;
51862;SDS011;37900;52.996;6.278;2023-02-19T16:15:24;2.97;;;1.02;;
51862;SDS011;37900;52.996;6.278;2023-02-19T16:20:26;1.35;;;0.88;;
51862;SDS011;37900;52.996;6.278;2023-02-19T16:23:02;3.03;;;1.00;;
51862;SDS011;37900;52.996;6.278;2023-02-19T16:28:18;1.50;;;0.80;;
51862;SDS011;37900;52.996;6.278;2023-02-19T16:30:57;2.03;;;1.23;;
51862;SDS011;37900;52.996;6.278;2023-02-19T16:46:45;2.00;;;1.15;;
51862;SDS011;37900;52.996;6.278;2023-02-19T16:49:15;1.85;;;1.00;;
51862;SDS011;37900;52.996;6.278;2023-02-19T16:51:42;2.38;;;0.80;;
51862;SDS011;37900;52.996;6.278;2023-02-19T16:54:08;1.65;;;0.80;;
51862;SDS011;37900;52.996;6.278;2023-02-19T16:56:35;1.50;;;0.80;;
51862;SDS011;37900;52.996;6.278;2023-02-19T16:59:01;1.65;;;1.02;;
51862;SDS011;37900;52.996;6.278;2023-02-19T17:01:27;1.27;;;0.88;;
51862;SDS011;37900;52.996;6.278;2023-02-19T17:03:54;1.38;;;0.88;;
51862;SDS011;37900;52.996;6.278;2023-02-19T17:06:24;2.45;;;1.10;;
51862;SDS011;37900;52.996;6.278;2023-02-19T17:08:50;0.82;;;0.70;;
51862;SDS011;37900;52.996;6.278;2023-02-19T17:11:17;0.85;;;0.73;;
51862;SDS011;37900;52.996;6.278;2023-02-19T17:13:43;1.27;;;0.90;;
51862;SDS011;37900;52.996;6.278;2023-02-19T17:16:16;1.35;;;0.88;;
51862;SDS011;37900;52.996;6.278;2023-02-19T17:18:44;2.45;;;1.02;;
51862;SDS011;37900;52.996;6.278;2023-02-19T17:21:23;1.33;;;1.00;;
51862;SDS011;37900;52.996;6.278;2023-02-19T17:23:51;2.03;;;1.00;;
51862;SDS011;37900;52.996;6.278;2023-02-19T17:26:29;1.77;;;0.93;;
51862;SDS011;37900;52.996;6.278;2023-02-19T17:28:56;1.30;;;0.80;;
51862;SDS011;37900;52.996;6.278;2023-02-19T17:31:26;1.50;;;0.90;;
51862;SDS011;37900;52.996;6.278;2023-02-19T17:33:52;2.20;;;1.20;;
51862;SDS011;37900;52.996;6.278;2023-02-19T17:36:20;0.73;;;0.70;;
51862;SDS011;37900;52.996;6.278;2023-02-19T17:38:48;1.48;;;0.95;;
51862;SDS011;37900;52.996;6.278;2023-02-19T17:41:13;1.33;;;0.90;;
51862;SDS011;37900;52.996;6.278;2023-02-19T17:43:39;1.00;;;0.90;;
51862;SDS011;37900;52.996;6.278;2023-02-19T17:46:05;1.42;;;0.90;;
51862;SDS011;37900;52.996;6.278;2023-02-19T17:48:31;2.35;;;0.88;;
51862;SDS011;37900;52.996;6.278;2023-02-19T17:50:56;1.73;;;1.00;;
51862;SDS011;37900;52.996;6.278;2023-02-19T17:53:22;1.63;;;1.10;;
51862;SDS011;37900;52.996;6.278;2023-02-19T17:55:48;1.50;;;0.80;;
51862;SDS011;37900;52.996;6.278;2023-02-19T17:58:14;2.63;;;1.30;;
51862;SDS011;37900;52.996;6.278;2023-02-19T18:00:39;0.70;;;0.70;;
51862;SDS011;37900;52.996;6.278;2023-02-19T18:03:05;1.40;;;1.00;;
51862;SDS011;37900;52.996;6.278;2023-02-19T18:05:34;1.80;;;1.02;;
51862;SDS011;37900;52.996;6.278;2023-02-19T18:08:00;1.98;;;1.02;;
51862;SDS011;37900;52.996;6.278;2023-02-19T18:10:26;1.88;;;0.88;;